createdAt,value
2017-05-27T00:00:25.873Z,0
2017-05-27T00:01:27.847Z,0
2017-05-27T00:02:29.913Z,0
2017-05-27T00:04:13.309Z,0
2017-05-27T00:05:15.218Z,0
2017-05-27T00:06:17.164Z,0
2017-05-27T00:07:19.134Z,0
2017-05-27T00:08:21.200Z,0
2017-05-27T00:09:23.434Z,0
2017-05-27T00:10:25.584Z,0
2017-05-27T00:11:28.299Z,0
2017-05-27T00:12:30.605Z,0
2017-05-27T00:13:32.739Z,0
2017-05-27T00:14:34.749Z,0
2017-05-27T00:15:36.906Z,0
2017-05-27T00:16:38.859Z,0
2017-05-27T00:17:41.087Z,0
2017-05-27T00:18:43.028Z,0
2017-05-27T00:19:44.966Z,0
2017-05-27T00:20:47.106Z,0
2017-05-27T00:21:49.017Z,0
2017-05-27T00:22:50.941Z,0
2017-05-27T00:23:52.792Z,0
2017-05-27T00:24:54.778Z,0
2017-05-27T00:25:56.817Z,0
2017-05-27T00:26:58.966Z,0
2017-05-27T00:28:01.059Z,0
2017-05-27T00:29:02.941Z,0
2017-05-27T00:30:05.039Z,0
2017-05-27T00:31:06.992Z,0
2017-05-27T00:32:08.857Z,0
2017-05-27T00:33:11.032Z,0
2017-05-27T00:34:13.027Z,0
2017-05-27T00:35:15.009Z,0
2017-05-27T00:36:16.859Z,0
2017-05-27T00:37:18.787Z,0
2017-05-27T00:38:21.279Z,0
2017-05-27T00:39:23.268Z,0
2017-05-27T00:40:25.366Z,0
2017-05-27T00:41:27.393Z,0
2017-05-27T00:42:29.588Z,0
2017-05-27T00:43:31.556Z,0
2017-05-27T00:44:33.457Z,0
2017-05-27T00:45:35.794Z,0
2017-05-27T00:46:37.914Z,0
2017-05-27T00:47:39.821Z,0
2017-05-27T00:48:41.684Z,0
2017-05-27T00:49:43.738Z,0
2017-05-27T00:50:45.899Z,0
2017-05-27T00:51:47.900Z,0
2017-05-27T00:52:49.672Z,0
2017-05-27T00:53:51.693Z,0
2017-05-27T00:54:53.520Z,0
2017-05-27T00:55:55.651Z,0
2017-05-27T00:56:58.269Z,0
2017-05-27T00:58:00.389Z,0
2017-05-27T00:59:02.516Z,0
2017-05-27T01:00:04.486Z,0
2017-05-27T01:01:06.433Z,0
2017-05-27T01:02:08.392Z,0
2017-05-27T01:03:10.545Z,0
2017-05-27T01:04:12.332Z,0
2017-05-27T01:05:14.176Z,0
2017-05-27T01:06:16.228Z,0
2017-05-27T01:07:18.116Z,0
2017-05-27T01:08:19.964Z,0
2017-05-27T01:09:22.002Z,0
2017-05-27T01:10:23.903Z,0
2017-05-27T01:11:25.816Z,0
2017-05-27T01:12:27.890Z,0
2017-05-27T01:13:29.760Z,0
2017-05-27T01:14:31.622Z,0
2017-05-27T01:15:33.576Z,0
2017-05-27T01:16:35.648Z,0
2017-05-27T01:17:37.485Z,0
2017-05-27T01:18:39.381Z,0
2017-05-27T01:19:41.348Z,0
2017-05-27T01:20:43.329Z,0
2017-05-27T01:21:45.307Z,0
2017-05-27T01:22:47.129Z,0
2017-05-27T01:23:49.340Z,0
2017-05-27T01:24:51.283Z,0
2017-05-27T01:25:53.237Z,0
2017-05-27T01:26:55.090Z,0
2017-05-27T01:27:57.728Z,0
2017-05-27T01:28:59.986Z,0
2017-05-27T01:30:01.895Z,0
2017-05-27T01:31:04.651Z,0
2017-05-27T01:32:06.722Z,0
2017-05-27T01:33:08.637Z,0
2017-05-27T01:34:10.687Z,0
2017-05-27T01:35:12.518Z,0
2017-05-27T01:36:14.467Z,0
2017-05-27T01:37:16.361Z,0
2017-05-27T01:38:18.266Z,0
2017-05-27T01:39:20.358Z,0
2017-05-27T01:40:22.280Z,0
2017-05-27T01:41:24.357Z,0
2017-05-27T01:42:26.173Z,0
2017-05-27T01:43:28.492Z,0
2017-05-27T01:44:30.409Z,0
2017-05-27T01:45:32.563Z,0
2017-05-27T01:46:34.457Z,0
2017-05-27T01:47:36.221Z,0
2017-05-27T01:48:38.276Z,0
2017-05-27T01:49:40.229Z,0
2017-05-27T01:50:42.286Z,0
2017-05-27T01:51:44.173Z,0
2017-05-27T01:52:46.235Z,0
2017-05-27T01:53:48.274Z,0
2017-05-27T01:54:50.399Z,0
2017-05-27T01:55:52.269Z,0
2017-05-27T01:56:54.046Z,0
2017-05-27T01:57:55.844Z,0
2017-05-27T01:58:57.880Z,0
2017-05-27T01:59:59.827Z,0
2017-05-27T02:01:02.045Z,0
2017-05-27T02:02:04.107Z,0
2017-05-27T02:03:06.164Z,0
2017-05-27T02:04:08.346Z,0
2017-05-27T02:05:10.359Z,0
2017-05-27T02:06:12.411Z,0
2017-05-27T02:07:14.318Z,0
2017-05-27T02:08:16.323Z,0
2017-05-27T02:09:18.326Z,0
2017-05-27T02:10:20.398Z,0
2017-05-27T02:11:22.316Z,0
2017-05-27T02:12:24.444Z,0
2017-05-27T02:13:26.437Z,0
2017-05-27T02:14:28.378Z,0
2017-05-27T02:15:30.430Z,0
2017-05-27T02:16:32.403Z,0
2017-05-27T02:17:34.270Z,0
2017-05-27T02:18:36.202Z,0
2017-05-27T02:19:38.099Z,0
2017-05-27T02:20:40.262Z,0
2017-05-27T02:21:42.400Z,0
2017-05-27T02:22:44.579Z,0
2017-05-27T02:23:46.626Z,0
2017-05-27T02:24:49.219Z,0
2017-05-27T02:25:51.336Z,0
2017-05-27T02:26:53.208Z,0
2017-05-27T02:27:55.105Z,0
2017-05-27T02:28:57.025Z,0
2017-05-27T02:29:58.919Z,0
2017-05-27T02:31:01.195Z,0
2017-05-27T02:32:03.406Z,0
2017-05-27T02:33:05.478Z,0
2017-05-27T02:34:07.544Z,0
2017-05-27T02:35:09.676Z,0
2017-05-27T02:36:11.787Z,0
2017-05-27T02:37:13.701Z,0
2017-05-27T02:38:15.549Z,0
2017-05-27T02:39:17.558Z,0
2017-05-27T02:40:19.734Z,0
2017-05-27T02:41:21.819Z,0
2017-05-27T02:42:23.871Z,0
2017-05-27T02:43:25.974Z,0
2017-05-27T02:44:28.455Z,0
2017-05-27T02:45:30.331Z,0
2017-05-27T02:46:32.279Z,0
2017-05-27T02:47:34.180Z,0
2017-05-27T02:48:36.218Z,0
2017-05-27T02:49:38.321Z,0
2017-05-27T02:50:40.222Z,4
2017-05-27T02:51:42.334Z,0
2017-05-27T02:52:44.377Z,0
2017-05-27T02:53:46.466Z,0
2017-05-27T02:54:48.344Z,4
2017-05-27T02:55:50.222Z,0
2017-05-27T02:56:52.265Z,0
2017-05-27T02:57:54.190Z,4
2017-05-27T02:58:56.027Z,0
2017-05-27T02:59:58.004Z,4
2017-05-27T03:01:00.083Z,4
2017-05-27T03:02:02.181Z,4
2017-05-27T03:03:04.285Z,4
2017-05-27T03:04:06.248Z,4
2017-05-27T03:05:08.140Z,4
2017-05-27T03:06:10.145Z,8
2017-05-27T03:07:12.121Z,4
2017-05-27T03:08:14.292Z,4
2017-05-27T03:09:16.397Z,4
2017-05-27T03:10:18.371Z,8
2017-05-27T03:11:20.513Z,12
2017-05-27T03:12:22.660Z,12
2017-05-27T03:13:24.630Z,12
2017-05-27T03:14:26.520Z,12
2017-05-27T03:15:28.644Z,12
2017-05-27T03:16:30.723Z,16
2017-05-27T03:17:32.758Z,16
2017-05-27T03:18:34.866Z,20
2017-05-27T03:19:37.036Z,16
2017-05-27T03:20:38.886Z,20
2017-05-27T03:21:40.813Z,24
2017-05-27T03:22:42.918Z,24
2017-05-27T03:23:44.988Z,24
2017-05-27T03:24:46.821Z,28
2017-05-27T03:25:48.900Z,28
2017-05-27T03:26:50.785Z,32
2017-05-27T03:27:52.901Z,32
2017-05-27T03:28:55.018Z,36
2017-05-27T03:29:57.720Z,40
2017-05-27T03:30:59.806Z,40
2017-05-27T03:32:01.789Z,40
2017-05-27T03:33:03.824Z,44
2017-05-27T03:34:05.696Z,44
2017-05-27T03:35:07.888Z,48
2017-05-27T03:36:10.203Z,52
2017-05-27T03:37:12.134Z,56
2017-05-27T03:38:14.061Z,56
2017-05-27T03:39:16.122Z,60
2017-05-27T03:40:18.151Z,60
2017-05-27T03:41:20.197Z,68
2017-05-27T03:42:22.271Z,72
2017-05-27T03:43:24.228Z,72
2017-05-27T03:44:26.200Z,76
2017-05-27T03:45:28.300Z,76
2017-05-27T03:46:30.210Z,80
2017-05-27T03:47:32.290Z,84
2017-05-27T03:48:34.203Z,88
2017-05-27T03:49:36.406Z,88
2017-05-27T03:50:38.461Z,92
2017-05-27T03:51:40.327Z,96
2017-05-27T03:52:42.267Z,100
2017-05-27T03:53:44.207Z,104
2017-05-27T03:54:46.288Z,108
2017-05-27T03:55:48.413Z,108
2017-05-27T03:56:50.666Z,112
2017-05-27T03:57:52.583Z,116
2017-05-27T03:58:54.457Z,120
2017-05-27T03:59:56.532Z,120
2017-05-27T04:00:58.614Z,124
2017-05-27T04:02:00.705Z,128
2017-05-27T04:03:02.900Z,128
2017-05-27T04:04:04.863Z,132
2017-05-27T04:05:06.786Z,136
2017-05-27T04:06:09.017Z,140
2017-05-27T04:07:11.087Z,144
2017-05-27T04:08:12.977Z,144
2017-05-27T04:09:15.057Z,148
2017-05-27T04:10:16.900Z,152
2017-05-27T04:11:18.808Z,152
2017-05-27T04:12:20.832Z,156
2017-05-27T04:13:22.965Z,160
2017-05-27T04:14:25.055Z,160
2017-05-27T04:15:27.058Z,168
2017-05-27T04:16:29.058Z,168
2017-05-27T04:17:31.278Z,172
2017-05-27T04:18:33.234Z,172
2017-05-27T04:19:35.315Z,176
2017-05-27T04:20:37.264Z,176
2017-05-27T04:21:39.233Z,180
2017-05-27T04:22:41.256Z,184
2017-05-27T04:23:43.343Z,188
2017-05-27T04:24:45.415Z,192
2017-05-27T04:25:47.580Z,196
2017-05-27T04:26:49.602Z,196
2017-05-27T04:27:51.556Z,200
2017-05-27T04:28:53.452Z,204
2017-05-27T04:29:55.354Z,208
2017-05-27T04:30:57.259Z,212
2017-05-27T04:31:59.118Z,212
2017-05-27T04:33:01.223Z,216
2017-05-27T04:34:03.244Z,216
2017-05-27T04:35:05.358Z,220
2017-05-27T04:36:07.436Z,224
2017-05-27T04:37:09.507Z,228
2017-05-27T04:38:11.677Z,232
2017-05-27T04:39:13.729Z,236
2017-05-27T04:40:15.716Z,240
2017-05-27T04:41:17.675Z,240
2017-05-27T04:42:19.721Z,244
2017-05-27T04:43:21.578Z,252
2017-05-27T04:44:23.640Z,264
2017-05-27T04:45:25.488Z,268
2017-05-27T04:46:27.552Z,272
2017-05-27T04:47:29.527Z,280
2017-05-27T04:48:31.360Z,288
2017-05-27T04:49:33.264Z,296
2017-05-27T04:50:35.325Z,304
2017-05-27T04:51:37.305Z,296
2017-05-27T04:52:39.316Z,280
2017-05-27T04:53:41.457Z,284
2017-05-27T04:54:43.365Z,280
2017-05-27T04:55:45.220Z,284
2017-05-27T04:56:47.287Z,292
2017-05-27T04:57:49.184Z,292
2017-05-27T04:58:51.033Z,296
2017-05-27T04:59:53.042Z,304
2017-05-27T05:00:55.046Z,312
2017-05-27T05:01:56.993Z,320
2017-05-27T05:02:59.003Z,316
2017-05-27T05:04:00.778Z,316
2017-05-27T05:05:02.679Z,320
2017-05-27T05:06:04.798Z,324
2017-05-27T05:07:06.894Z,328
2017-05-27T05:08:09.046Z,336
2017-05-27T05:09:11.259Z,340
2017-05-27T05:10:13.150Z,344
2017-05-27T05:11:15.030Z,348
2017-05-27T05:12:16.972Z,352
2017-05-27T05:13:19.010Z,356
2017-05-27T05:14:20.942Z,360
2017-05-27T05:15:22.820Z,364
2017-05-27T05:16:25.077Z,368
2017-05-27T05:17:27.123Z,376
2017-05-27T05:18:29.163Z,384
2017-05-27T05:19:30.996Z,404
2017-05-27T05:20:33.112Z,444
2017-05-27T05:21:34.951Z,472
2017-05-27T05:22:36.787Z,532
2017-05-27T05:23:38.786Z,724
2017-05-27T05:24:40.690Z,1132
2017-05-27T05:25:42.575Z,1660
2017-05-27T05:26:44.513Z,1952
2017-05-27T05:27:46.404Z,1804
2017-05-27T05:28:48.334Z,1864
2017-05-27T05:29:50.336Z,2492
2017-05-27T05:30:52.348Z,2492
2017-05-27T05:31:54.241Z,1724
2017-05-27T05:32:56.176Z,1560
2017-05-27T05:33:58.372Z,2624
2017-05-27T05:35:00.710Z,4168
2017-05-27T05:36:02.799Z,4644
2017-05-27T05:37:04.915Z,3588
2017-05-27T05:38:06.872Z,2868
2017-05-27T05:39:08.900Z,3268
2017-05-27T05:40:10.878Z,4212
2017-05-27T05:41:12.926Z,4972
2017-05-27T05:42:14.828Z,5556
2017-05-27T05:43:16.964Z,6196
2017-05-27T05:44:18.836Z,6424
2017-05-27T05:45:20.972Z,6044
2017-05-27T05:46:23.005Z,3324
2017-05-27T05:47:24.983Z,2364
2017-05-27T05:48:27.056Z,4944
2017-05-27T05:49:28.881Z,7752
2017-05-27T05:50:31.130Z,7988
2017-05-27T05:51:32.994Z,7432
2017-05-27T05:52:35.037Z,6036
2017-05-27T05:53:36.884Z,6404
2017-05-27T05:54:39.206Z,7604
2017-05-27T05:55:41.310Z,8180
2017-05-27T05:56:43.338Z,10708
2017-05-27T05:57:45.299Z,12640
2017-05-27T05:58:47.360Z,12736
2017-05-27T05:59:49.209Z,11724
2017-05-27T06:00:51.347Z,9420
2017-05-27T06:01:53.261Z,6720
2017-05-27T06:02:55.392Z,9440
2017-05-27T06:03:57.443Z,10744
2017-05-27T06:06:23.312Z,7068
2017-05-27T06:07:24.882Z,14944
2017-05-27T06:08:26.549Z,15584
2017-05-27T06:09:28.453Z,16096
2017-05-27T06:10:30.331Z,16320
2017-05-27T06:11:32.267Z,15712
2017-05-27T06:12:34.036Z,14144
2017-05-27T06:13:36.259Z,9420
2017-05-27T06:14:38.131Z,12936
2017-05-27T06:15:40.035Z,17952
2017-05-27T06:16:42.182Z,18816
2017-05-27T06:17:44.266Z,17632
2017-05-27T06:18:46.211Z,14688
2017-05-27T06:19:48.135Z,16864
2017-05-27T06:20:50.314Z,20768
2017-05-27T06:21:52.081Z,20032
2017-05-27T06:22:54.269Z,16000
2017-05-27T06:23:56.480Z,17312
2017-05-27T06:24:58.214Z,22912
2017-05-27T06:26:00.229Z,24000
2017-05-27T06:27:02.313Z,23616
2017-05-27T06:28:04.204Z,20032
2017-05-27T06:29:06.069Z,22272
2017-05-27T06:30:08.163Z,18112
2017-05-27T06:31:09.958Z,13048
2017-05-27T06:32:12.028Z,16352
2017-05-27T06:33:13.894Z,23616
2017-05-27T06:34:15.701Z,24096
2017-05-27T06:35:17.683Z,26656
2017-05-27T06:36:19.668Z,26720
2017-05-27T06:37:21.749Z,27808
2017-05-27T06:38:23.815Z,28832
2017-05-27T06:39:25.683Z,27584
2017-05-27T06:40:27.711Z,27840
2017-05-27T06:41:29.723Z,29280
2017-05-27T06:42:31.803Z,30080
2017-05-27T06:43:34.029Z,31200
2017-05-27T06:44:35.764Z,29792
2017-05-27T06:45:37.708Z,29856
2017-05-27T06:46:39.610Z,32128
2017-05-27T06:47:41.485Z,31904
2017-05-27T06:48:43.317Z,31744
2017-05-27T06:49:45.335Z,32640
2017-05-27T06:50:47.243Z,32608
2017-05-27T06:51:49.323Z,31680
2017-05-27T06:52:51.531Z,33280
2017-05-27T06:53:53.538Z,33536
2017-05-27T06:54:55.371Z,34624
2017-05-27T06:55:57.223Z,34112
2017-05-27T06:56:58.989Z,34688
2017-05-27T06:58:00.889Z,34432
2017-05-27T06:59:03.163Z,33312
2017-05-27T07:00:05.407Z,30464
2017-05-27T07:01:07.675Z,29088
2017-05-27T07:02:09.843Z,30304
2017-05-27T07:03:11.812Z,29504
2017-05-27T07:04:13.802Z,30752
2017-05-27T07:05:15.829Z,33056
2017-05-27T07:06:17.745Z,32096
2017-05-27T07:07:20.051Z,32384
2017-05-27T07:08:22.009Z,32608
2017-05-27T07:09:23.883Z,32352
2017-05-27T07:10:25.734Z,21984
2017-05-27T07:11:27.621Z,8064
2017-05-27T07:12:29.619Z,2068
2017-05-27T07:13:31.585Z,1960
2017-05-27T07:14:33.695Z,1852
2017-05-27T07:15:35.724Z,1840
2017-05-27T07:16:37.787Z,1784
2017-05-27T07:17:39.671Z,1744
2017-05-27T07:18:41.664Z,1720
2017-05-27T07:19:43.685Z,1672
2017-05-27T07:20:45.795Z,1620
2017-05-27T07:21:47.891Z,1608
2017-05-27T07:22:49.964Z,1592
2017-05-27T07:23:52.011Z,1576
2017-05-27T07:24:53.916Z,1552
2017-05-27T07:25:55.878Z,1536
2017-05-27T07:26:57.912Z,1516
2017-05-27T07:28:00.047Z,1468
2017-05-27T07:29:02.253Z,1472
2017-05-27T07:30:04.223Z,1448
2017-05-27T07:31:06.222Z,1440
2017-05-27T07:32:07.978Z,1428
2017-05-27T07:33:10.274Z,1412
2017-05-27T07:34:12.001Z,1380
2017-05-27T07:35:14.051Z,1400
2017-05-27T07:36:16.195Z,1384
2017-05-27T07:37:18.087Z,1392
2017-05-27T07:38:19.711Z,1392
2017-05-27T07:39:21.727Z,1388
2017-05-27T07:40:25.621Z,1396
2017-05-27T07:41:27.707Z,1404
2017-05-27T07:42:29.559Z,1420
2017-05-27T07:43:31.575Z,1420
2017-05-27T07:44:33.420Z,1420
2017-05-27T07:45:35.482Z,1420
2017-05-27T07:46:37.433Z,1440
2017-05-27T07:47:39.255Z,1448
2017-05-27T07:48:41.493Z,1448
2017-05-27T07:49:44.209Z,1464
2017-05-27T07:50:46.362Z,1468
2017-05-27T07:51:48.281Z,1484
2017-05-27T07:52:50.419Z,1500
2017-05-27T07:53:52.547Z,1520
2017-05-27T07:54:54.416Z,1544
2017-05-27T07:55:56.524Z,1536
2017-05-27T07:56:59.517Z,1596
2017-05-27T07:58:01.735Z,1612
2017-05-27T07:59:03.700Z,1628
2017-05-27T08:00:05.795Z,1636
2017-05-27T08:01:07.596Z,1624
2017-05-27T08:02:09.597Z,1688
2017-05-27T08:03:11.842Z,1680
2017-05-27T08:04:13.691Z,1728
2017-05-27T08:05:15.560Z,1744
2017-05-27T08:06:17.358Z,1768
2017-05-27T08:07:19.618Z,1788
2017-05-27T08:08:21.839Z,1796
2017-05-27T08:09:24.060Z,1832
2017-05-27T08:10:25.978Z,1848
2017-05-27T08:11:28.000Z,1876
2017-05-27T08:13:17.714Z,1920
2017-05-27T08:14:19.481Z,1944
2017-05-27T08:15:22.077Z,1984
2017-05-27T08:16:24.533Z,2020
2017-05-27T09:49:27.020Z,2364
2017-05-27T09:50:28.958Z,2972
2017-05-27T09:51:30.717Z,2956
2017-05-27T09:52:32.861Z,2976
2017-05-27T09:53:34.956Z,2952
2017-05-27T09:54:37.030Z,2956
2017-05-27T09:55:39.133Z,2976
2017-05-27T09:56:41.328Z,2980
2017-05-27T09:57:43.263Z,2972
2017-05-27T09:58:45.409Z,2992
2017-05-27T09:59:47.257Z,3000
2017-05-27T10:00:49.006Z,2960
2017-05-27T10:01:51.254Z,2960
2017-05-27T10:03:40.718Z,2956
2017-05-27T14:29:45.100Z,164
2017-05-27T14:30:46.530Z,80
2017-05-27T14:31:24.253Z,84
2017-05-27T14:32:25.688Z,84
2017-05-27T14:33:27.115Z,80
2017-05-27T14:46:23.705Z,84
2017-05-27T14:47:25.133Z,84
2017-05-27T14:48:26.563Z,80
2017-05-27T14:49:27.993Z,84
2017-05-27T14:50:29.421Z,84
2017-05-27T14:51:30.848Z,80
2017-05-27T14:52:32.278Z,84
2017-05-27T14:53:33.701Z,84
2017-05-27T14:54:05.011Z,84
2017-05-27T14:57:06.457Z,84
2017-05-27T15:00:07.902Z,148
2017-05-27T15:28:25.495Z,152
2017-05-27T15:29:26.385Z,4
2017-05-27T15:31:27.828Z,132
2017-05-27T15:33:29.269Z,144
2017-05-27T15:35:30.710Z,148
2017-05-27T15:37:32.148Z,148
2017-05-27T15:39:33.586Z,40
2017-05-27T15:41:35.026Z,164
2017-05-27T16:11:18.175Z,768
